Airfield :
LOGIN :

Register | Disclaimer

   EN    FR    IT 

 










Legend :    VFR   Marginal VFR   IFR   Intensive IFR   Very Intensive IFR
Visi :
Ceiling :
>= 8 km
>= 3000ft
5 to 8 km
1000 to 3000 ft
1500m to 5 km
500 to 1000 ft
800 to 1500m
200 to 500 ft
< 800m
< 200 ft
Symbols :   Thunderstorms  Fog  Heavy snow  Heavy precipitations  Wind > 20 kt
SIGMETs :     Misc.  Thunderstorms  Icing  Turbulence  Mountain Waves  Volcanic Ashes







- Airport Elevation : 256 ft
- IATA code : CFR
- Download approach charts


LFRK - Caen

CURRENT METAR :
  • 232000Z AUTO 34009KT 9999 FEW040 SCT062 12/06 Q1028 BECMG 35015G25KT

EXPIRED METARs :
  • 231930Z AUTO 33009KT 9999 FEW040 BKN062 12/07 Q1028 BECMG 35015G25KT
  • 231900Z AUTO 33007KT 9999 FEW043 BKN058 12/07 Q1027 BECMG 35015G25KT
  • 231830Z AUTO 33006KT 9999 FEW041 SCT050 12/07 Q1027 BECMG 35015G25KT
  • 231800Z AUTO 33009KT 290V360 9999 FEW032 SCT048 12/06 Q1026 BECMG 35015G25KT
  • 231730Z AUTO 34010KT 9999 SCT035 BKN044 12/07 Q1025 BECMG 35015G25KT

TAF TAF LFRK
Valid from the 23 at 15:00 until the 24 at 00:00 UTC


231400Z 2315/2324 35015G25KT 9999 BKN020
BECMG 2322/2324 36010KT
Met : +33 2 31 26 68 11
No reported NOTAMs for that airfield.



MET'MAP, your aeronautical weather chart ! - Copyright ORBIFLY December 2007 - Disclaimer

ORBIFLY MET'MAP TEAM :

Programming & Development : Alexandra Zaïnal
Concept & Development : Baudouin d'Aumeries
Co-Development & Prog : Marc-Olivier Méhu
Technical & hardware support : Manuel Goepfert

Contact : metmap@orbifly.com




SOURCES & CREDITS :

   NOAA